KABE 071508Z 0715/0812 31011KT 2SM HZ FU SCT080
FM072000 32010KT 2SM HZ FU SCT080
FM080000 33006KT 3SM HZ SCT050
From batch tds/tafs/production/2023/6/7/h15_m19_tafs.cache.xml
Issued (12 months ago)
Forecasts
0715/0720 31011KT 2.0SM SCT8000

---
wx_string: HZ FU
fcst_time_to: '2023-06-07T20:00:00Z'
sky_condition:
- sky_cover: SCT
  cloud_base_ft_agl: '8000'
wind_speed_kt: '11'
fcst_time_from: '2023-06-07T15:00:00Z'
wind_dir_degrees: '310'
visibility_statute_mi: '2.0'

FM072000 32010KT 2.0SM SCT8000

---
wx_string: HZ FU
fcst_time_to: '2023-06-08T00:00:00Z'
sky_condition:
- sky_cover: SCT
  cloud_base_ft_agl: '8000'
wind_speed_kt: '10'
fcst_time_from: '2023-06-07T20:00:00Z'
change_indicator: FM
wind_dir_degrees: '320'
visibility_statute_mi: '2.0'

FM080000 33006KT 3.0SM SCT5000

---
wx_string: HZ
fcst_time_to: '2023-06-08T12:00:00Z'
sky_condition:
- sky_cover: SCT
  cloud_base_ft_agl: '5000'
wind_speed_kt: '6'
fcst_time_from: '2023-06-08T00:00:00Z'
change_indicator: FM
wind_dir_degrees: '330'
visibility_statute_mi: '3.0'

talk